Time;durP1;ratioP1;P1;durP2;ratioP2;P2;SDS_P1;SDS_P2;PMS_P1;PMS_P2;Temp;Humidity;BMP_temperature;BMP_pressure;BME280_temperature;BME280_humidity;BME280_pressure;Samples;Min_cycle;Max_cycle;Signal;HPM_P1;HPM_P2
2021/01/29 00:00:46;;;;;;;24.87;3.80;;;21.30;99.90;;;;;;5057653;28;20225;-69
2021/01/29 00:03:16;;;;;;;20.37;3.57;;;21.30;99.90;;;;;;5054672;28;20184;-70
2021/01/29 00:05:58;;;;;;;23.47;4.30;;;21.30;99.90;;;;;;5053896;28;20160;-68
2021/01/29 00:08:26;;;;;;;18.60;4.07;;;21.30;99.90;;;;;;5053384;28;20183;-70
2021/01/29 00:10:54;;;;;;;14.00;2.93;;;21.20;99.90;;;;;;5046827;28;20188;-68
2021/01/29 00:13:22;;;;;;;14.60;2.40;;;21.00;99.90;;;;;;5046894;28;20179;-69
2021/01/29 00:15:51;;;;;;;15.60;3.87;;;20.90;99.90;;;;;;5050547;28;20509;-67
2021/01/29 00:18:19;;;;;;;17.83;3.47;;;20.90;99.90;;;;;;5046508;28;20694;-66
2021/01/29 00:20:46;;;;;;;14.53;3.30;;;21.00;99.90;;;;;;5053022;28;20658;-67
2021/01/29 00:23:15;;;;;;;17.50;3.47;;;21.00;99.90;;;;;;5052940;28;20187;-67
2021/01/29 00:25:50;;;;;;;14.53;3.13;;;21.10;99.90;;;;;;5053398;28;20216;-67
2021/01/29 00:28:20;;;;;;;19.73;3.50;;;21.20;99.90;;;;;;5053149;28;20204;-70
2021/01/29 00:30:50;;;;;;;25.00;3.93;;;21.20;99.90;;;;;;5051400;28;20689;-67
2021/01/29 00:33:20;;;;;;;23.20;3.83;;;21.20;99.90;;;;;;5045577;28;20191;-68
2021/01/29 00:35:47;;;;;;;25.37;3.90;;;21.40;99.90;;;;;;5051620;28;20196;-69
2021/01/29 00:38:14;;;;;;;20.33;3.93;;;21.40;99.90;;;;;;5052746;28;20207;-70
2021/01/29 00:40:42;;;;;;;23.53;3.93;;;21.20;99.90;;;;;;5053154;28;20599;-67
2021/01/29 00:43:10;;;;;;;27.60;4.23;;;21.20;99.90;;;;;;5052237;28;20192;-68
2021/01/29 00:45:38;;;;;;;24.30;3.80;;;21.10;99.90;;;;;;5053383;28;20263;-66
2021/01/29 00:48:08;;;;;;;20.77;3.60;;;21.00;99.90;;;;;;5052201;28;20164;-68
2021/01/29 00:50:37;;;;;;;23.07;4.17;;;21.00;99.90;;;;;;5054126;28;20180;-68
2021/01/29 00:53:06;;;;;;;28.60;3.77;;;21.00;99.90;;;;;;5054090;28;20180;-67
2021/01/29 00:55:33;;;;;;;29.63;5.00;;;20.90;99.90;;;;;;5053864;28;20644;-69
2021/01/29 00:58:01;;;;;;;23.30;4.10;;;21.00;99.90;;;;;;5052748;28;20255;-67
2021/01/29 01:00:28;;;;;;;22.13;3.90;;;21.00;99.90;;;;;;5051602;28;20183;-67
2021/01/29 01:02:55;;;;;;;31.23;4.73;;;21.00;99.90;;;;;;5060409;28;20198;-67
2021/01/29 01:05:25;;;;;;;20.77;4.03;;;21.00;99.90;;;;;;5045862;28;20223;-67
2021/01/29 01:07:53;;;;;;;22.93;4.63;;;21.00;99.90;;;;;;5053642;28;20172;-67
2021/01/29 01:10:22;;;;;;;22.90;3.67;;;21.00;99.90;;;;;;5053224;28;20242;-70
2021/01/29 01:12:49;;;;;;;23.80;5.07;;;21.10;99.90;;;;;;5045306;28;20592;-66
2021/01/29 01:15:23;;;;;;;19.07;3.63;;;21.00;99.90;;;;;;5043088;28;20191;-66
2021/01/29 01:17:52;;;;;;;16.70;3.43;;;20.90;99.90;;;;;;5043008;28;20314;-66
2021/01/29 01:20:23;;;;;;;18.80;4.13;;;20.90;99.90;;;;;;5052365;28;20172;-66
2021/01/29 01:22:51;;;;;;;25.07;4.00;;;20.90;99.90;;;;;;5052040;28;20188;-68
2021/01/29 01:25:19;;;;;;;25.00;3.73;;;20.90;99.90;;;;;;5052744;28;20211;-67
2021/01/29 01:27:46;;;;;;;27.77;4.97;;;20.90;99.90;;;;;;5053345;28;20200;-67
2021/01/29 01:30:18;;;;;;;34.77;5.43;;;20.90;99.90;;;;;;5052388;28;20665;-67
2021/01/29 01:32:46;;;;;;;27.83;4.63;;;21.00;99.90;;;;;;5051399;28;20626;-67
2021/01/29 01:35:15;;;;;;;31.17;5.03;;;21.20;99.90;;;;;;5052775;28;20195;-67
2021/01/29 01:37:42;;;;;;;30.13;5.00;;;21.40;99.90;;;;;;5052363;28;20568;-68
2021/01/29 01:40:11;;;;;;;17.17;3.80;;;21.40;99.90;;;;;;5052590;28;20653;-68
2021/01/29 01:42:38;;;;;;;24.43;4.63;;;21.40;99.90;;;;;;5050719;28;20203;-69
2021/01/29 01:45:31;;;;;;;32.17;4.83;;;21.60;99.90;;;;;;5052171;28;20184;-67
2021/01/29 01:48:07;;;;;;;32.43;5.47;;;21.70;99.90;;;;;;5050881;28;20593;-68
2021/01/29 01:50:49;;;;;;;30.60;5.13;;;21.70;99.90;;;;;;5052587;28;20167;-67
2021/01/29 01:53:24;;;;;;;30.73;5.53;;;21.90;99.90;;;;;;5042887;28;20274;-68
2021/01/29 01:56:07;;;;;;;31.83;5.43;;;22.00;99.90;;;;;;5047769;28;20653;-67
2021/01/29 01:58:35;;;;;;;30.40;5.63;;;21.90;99.90;;;;;;5052105;28;20666;-69
2021/01/29 02:01:03;;;;;;;23.73;5.17;;;21.90;99.90;;;;;;5050646;28;20263;-67
2021/01/29 02:03:34;;;;;;;28.87;5.17;;;21.90;99.90;;;;;;5052443;28;20689;-68
2021/01/29 02:06:03;;;;;;;25.40;4.60;;;21.70;99.90;;;;;;5049069;28;20670;-67
2021/01/29 02:08:34;;;;;;;35.20;5.60;;;21.60;99.90;;;;;;5046236;28;20192;-68
2021/01/29 02:11:02;;;;;;;31.00;4.87;;;21.50;99.90;;;;;;5043567;28;20187;-69
2021/01/29 02:13:29;;;;;;;31.77;4.80;;;21.60;99.90;;;;;;5046831;28;20196;-70
2021/01/29 02:16:06;;;;;;;20.70;4.27;;;21.40;99.90;;;;;;5045273;28;20176;-71
2021/01/29 02:18:53;;;;;;;30.47;4.83;;;21.50;99.90;;;;;;5046986;28;20661;-71
2021/01/29 02:22:06;;;;;;;29.80;4.30;;;21.40;99.90;;;;;;5034523;28;20184;-67
2021/01/29 02:25:25;;;;;;;17.67;4.97;;;21.40;99.90;;;;;;5044298;28;20187;-67
2021/01/29 02:28:00;;;;;;;25.07;4.47;;;21.40;99.90;;;;;;5035485;28;20188;-70
2021/01/29 02:30:37;;;;;;;19.83;3.53;;;21.40;99.90;;;;;;5046498;28;20171;-70
2021/01/29 02:33:31;;;;;;;31.93;5.30;;;21.40;99.90;;;;;;5046554;28;20168;-70
2021/01/29 02:36:13;;;;;;;24.17;4.67;;;21.30;99.90;;;;;;5051792;28;20621;-71
2021/01/29 02:38:53;;;;;;;25.63;3.90;;;21.30;99.90;;;;;;5037157;28;20214;-67
2021/01/29 02:41:44;;;;;;;25.67;5.20;;;21.30;99.90;;;;;;5051240;28;20194;-69
2021/01/29 02:44:48;;;;;;;29.27;4.90;;;21.40;99.90;;;;;;5052342;28;20256;-70
2021/01/29 02:47:39;;;;;;;30.10;5.70;;;21.50;99.90;;;;;;5051762;28;20191;-67
2021/01/29 02:50:19;;;;;;;30.20;4.97;;;21.60;99.90;;;;;;5052853;28;20176;-66
2021/01/29 02:53:15;;;;;;;31.00;6.23;;;21.70;99.90;;;;;;5052665;28;20245;-69
2021/01/29 02:56:06;;;;;;;29.07;5.20;;;21.60;99.90;;;;;;5046621;28;20176;-67
2021/01/29 02:58:56;;;;;;;32.23;5.63;;;21.60;99.90;;;;;;5046017;28;20520;-66
2021/01/29 03:01:57;;;;;;;20.03;4.30;;;21.50;99.90;;;;;;5050950;28;20556;-68
2021/01/29 03:05:06;;;;;;;20.60;4.83;;;21.30;99.90;;;;;;5035077;28;20647;-67
2021/01/29 03:08:01;;;;;;;24.73;4.03;;;21.40;99.90;;;;;;5048155;28;20176;-67
2021/01/29 03:10:46;;;;;;;13.07;3.83;;;21.40;99.90;;;;;;5052338;28;20195;-66
2021/01/29 03:13:27;;;;;;;21.77;4.10;;;21.50;99.90;;;;;;5054854;28;20207;-69
2021/01/29 03:16:00;;;;;;;19.03;3.47;;;21.40;99.90;;;;;;5055632;28;20180;-68
2021/01/29 03:18:54;;;;;;;18.67;3.43;;;21.30;99.90;;;;;;5041243;28;20208;-67
2021/01/29 03:21:34;;;;;;;25.13;4.23;;;21.20;99.90;;;;;;5053616;28;20191;-67
2021/01/29 03:24:14;;;;;;;25.80;4.80;;;21.10;99.90;;;;;;5055910;28;20215;-66
2021/01/29 03:26:58;;;;;;;29.47;5.30;;;21.10;99.90;;;;;;5043655;28;20253;-66
2021/01/29 03:29:30;;;;;;;24.40;3.97;;;21.10;99.90;;;;;;5056114;28;20202;-68
2021/01/29 03:32:00;;;;;;;27.47;4.57;;;21.20;99.90;;;;;;5055784;28;20176;-67
2021/01/29 03:34:36;;;;;;;19.67;3.63;;;21.10;99.90;;;;;;5055833;28;20226;-67
2021/01/29 03:37:28;;;;;;;20.97;4.63;;;21.10;99.90;;;;;;5054800;28;20302;-69
2021/01/29 03:39:56;;;;;;;15.87;2.97;;;21.10;99.90;;;;;;5035803;28;20199;-71
2021/01/29 03:42:23;;;;;;;22.63;4.27;;;21.00;99.90;;;;;;5050871;28;20562;-67
2021/01/29 03:45:20;;;;;;;20.67;3.60;;;20.90;99.90;;;;;;5054281;28;20210;-70
2021/01/29 03:48:17;;;;;;;16.30;3.23;;;20.90;99.90;;;;;;5026666;28;20271;-70
2021/01/29 03:51:09;;;;;;;21.93;3.20;;;21.00;99.90;;;;;;5051681;28;20248;-68
2021/01/29 03:53:45;;;;;;;18.00;3.37;;;20.90;99.90;;;;;;5054396;28;20271;-70
2021/01/29 03:56:40;;;;;;;16.77;3.93;;;21.00;99.90;;;;;;5054025;28;20187;-69
2021/01/29 03:59:21;;;;;;;16.10;3.37;;;21.00;99.90;;;;;;5053908;28;20681;-73
2021/01/29 04:01:54;;;;;;;17.50;3.17;;;21.00;99.90;;;;;;5053328;28;20195;-67
2021/01/29 04:04:30;;;;;;;17.03;2.73;;;21.00;99.90;;;;;;5053409;28;20225;-68
2021/01/29 04:07:06;;;;;;;15.17;2.60;;;21.00;99.90;;;;;;5051648;28;20333;-66
2021/01/29 04:09:55;;;;;;;18.13;2.77;;;21.00;99.90;;;;;;5052847;28;21897;-68
2021/01/29 04:13:02;;;;;;;22.57;3.80;;;21.00;99.90;;;;;;5042482;28;20176;-68
2021/01/29 04:15:38;;;;;;;15.27;3.00;;;21.10;99.90;;;;;;5054413;28;20657;-70
2021/01/29 04:18:14;;;;;;;19.70;3.20;;;21.20;99.90;;;;;;5053162;28;20215;-75
2021/01/29 04:20:55;;;;;;;20.67;3.50;;;21.20;99.90;;;;;;5054065;28;20167;-69
2021/01/29 04:23:42;;;;;;;22.53;3.33;;;21.20;99.90;;;;;;5054114;28;20622;-68
2021/01/29 04:26:16;;;;;;;15.30;2.90;;;21.20;99.90;;;;;;5042202;28;20229;-70
2021/01/29 04:28:58;;;;;;;22.43;4.93;;;21.10;99.90;;;;;;5044299;28;20180;-70
2021/01/29 04:31:28;;;;;;;24.33;3.63;;;21.00;99.90;;;;;;5050054;28;20267;-67
2021/01/29 04:34:20;;;;;;;16.23;3.13;;;21.10;99.90;;;;;;5050994;28;20542;-70
2021/01/29 04:36:53;;;;;;;18.13;4.23;;;21.10;99.90;;;;;;5033958;28;20200;-68
2021/01/29 04:39:45;;;;;;;16.43;3.13;;;21.10;99.90;;;;;;5050311;28;20654;-66
2021/01/29 04:42:32;;;;;;;21.37;3.30;;;21.10;99.90;;;;;;5054962;28;20172;-70
2021/01/29 04:45:35;;;;;;;21.50;4.07;;;21.00;99.90;;;;;;5071888;28;20179;-69
2021/01/29 04:48:18;;;;;;;14.23;3.10;;;21.00;99.90;;;;;;5060196;28;20195;-67
2021/01/29 04:51:18;;;;;;;26.70;4.60;;;21.00;99.90;;;;;;5053342;28;20191;-68
2021/01/29 04:54:17;;;;;;;26.13;4.27;;;20.90;99.90;;;;;;5048774;28;20191;-69
2021/01/29 04:57:25;;;;;;;32.67;5.50;;;20.90;99.90;;;;;;5051950;28;20307;-69
2021/01/29 05:00:04;;;;;;;24.60;4.47;;;20.90;99.90;;;;;;5053748;28;20176;-70
2021/01/29 05:02:50;;;;;;;19.83;3.47;;;21.00;99.90;;;;;;5053345;28;20183;-70
2021/01/29 05:05:46;;;;;;;26.50;3.97;;;21.00;99.90;;;;;;5053530;28;20171;-69
2021/01/29 05:08:35;;;;;;;23.43;4.03;;;21.20;99.90;;;;;;5052032;28;20184;-69
2021/01/29 05:11:30;;;;;;;20.07;3.83;;;21.20;99.90;;;;;;5052252;28;20180;-67
2021/01/29 05:14:44;;;;;;;16.20;4.13;;;21.10;99.90;;;;;;5054000;28;21773;-68
2021/01/29 05:17:48;;;;;;;19.17;3.60;;;21.00;99.90;;;;;;5052050;28;20293;-65
2021/01/29 05:20:27;;;;;;;26.70;4.37;;;21.00;99.90;;;;;;5049856;28;20183;-67
2021/01/29 05:23:24;;;;;;;14.90;3.20;;;21.00;99.90;;;;;;5049098;28;20196;-66
2021/01/29 05:26:19;;;;;;;17.03;3.37;;;21.00;99.90;;;;;;5036145;28;20223;-68
2021/01/29 05:29:10;;;;;;;14.40;2.60;;;21.00;99.90;;;;;;5050875;28;20199;-68
2021/01/29 05:31:40;;;;;;;22.97;3.57;;;20.90;99.90;;;;;;5039860;28;20184;-65
2021/01/29 05:34:18;;;;;;;15.37;3.37;;;21.00;99.90;;;;;;5051572;28;20190;-67
2021/01/29 05:37:10;;;;;;;13.47;2.87;;;20.90;99.90;;;;;;5052597;28;20237;-68
2021/01/29 05:39:56;;;;;;;19.97;3.07;;;20.80;99.90;;;;;;5040830;28;20184;-69
2021/01/29 05:42:32;;;;;;;22.87;3.13;;;20.90;99.90;;;;;;5050690;28;20188;-67
2021/01/29 05:45:27;;;;;;;18.37;3.60;;;20.90;99.90;;;;;;5059173;28;20220;-70
2021/01/29 05:48:21;;;;;;;18.50;4.23;;;20.80;99.90;;;;;;5049016;28;20267;-72
2021/01/29 05:51:07;;;;;;;18.97;3.63;;;20.80;99.90;;;;;;5051855;28;20176;-69
2021/01/29 05:54:02;;;;;;;16.90;2.97;;;20.80;99.90;;;;;;5052398;28;20187;-68
2021/01/29 05:57:00;;;;;;;15.57;2.60;;;20.80;99.90;;;;;;5052291;28;20282;-67
2021/01/29 06:00:22;;;;;;;19.27;3.20;;;20.70;99.90;;;;;;5052112;28;20187;-67
2021/01/29 06:03:27;;;;;;;21.90;3.23;;;20.70;99.90;;;;;;5022769;28;20291;-70
2021/01/29 06:06:28;;;;;;;20.43;3.47;;;20.70;99.90;;;;;;5054233;28;20191;-68
2021/01/29 06:09:30;;;;;;;12.60;2.57;;;20.70;99.90;;;;;;5034903;28;20184;-67
2021/01/29 06:12:14;;;;;;;18.67;4.53;;;20.60;99.90;;;;;;5046590;28;20194;-67
2021/01/29 06:14:50;;;;;;;14.03;2.77;;;20.60;99.90;;;;;;5040629;28;20183;-69
2021/01/29 06:17:49;;;;;;;14.87;3.17;;;20.60;99.90;;;;;;5050283;28;20777;-70
2021/01/29 06:20:38;;;;;;;18.77;3.30;;;20.60;99.90;;;;;;5047575;28;20542;-69
2021/01/29 06:23:08;;;;;;;17.70;3.63;;;20.70;99.90;;;;;;5048951;28;20597;-69
2021/01/29 06:25:42;;;;;;;17.27;3.30;;;20.70;99.90;;;;;;5063964;28;20172;-70
2021/01/29 06:28:19;;;;;;;16.70;3.63;;;20.70;99.90;;;;;;5050202;28;20196;-69
2021/01/29 06:31:08;;;;;;;21.20;3.90;;;20.70;99.90;;;;;;5037005;28;20175;-66
2021/01/29 06:33:47;;;;;;;23.23;4.03;;;20.80;99.90;;;;;;5047069;28;20639;-70
2021/01/29 06:36:14;;;;;;;18.07;3.40;;;20.80;99.90;;;;;;5047942;28;20599;-70
2021/01/29 06:38:48;;;;;;;25.27;4.27;;;20.60;99.90;;;;;;5050783;28;20533;-69
2021/01/29 06:41:45;;;;;;;26.23;3.93;;;20.70;99.90;;;;;;5048773;28;20259;-71
2021/01/29 06:44:34;;;;;;;25.03;4.73;;;20.70;99.90;;;;;;5052239;28;20241;-67
2021/01/29 06:47:07;;;;;;;24.03;4.10;;;20.70;99.90;;;;;;5051716;28;20187;-64
2021/01/29 06:50:15;;;;;;;23.70;4.30;;;20.70;99.90;;;;;;5055679;28;20175;-67
2021/01/29 06:52:55;;;;;;;25.13;4.60;;;20.60;99.90;;;;;;4998991;28;20189;-66
2021/01/29 06:55:40;;;;;;;32.87;4.83;;;20.60;99.90;;;;;;5044291;28;20180;-71
2021/01/29 06:58:36;;;;;;;22.47;4.07;;;20.60;99.90;;;;;;5055407;28;20566;-69
2021/01/29 07:01:29;;;;;;;29.00;4.93;;;20.60;99.90;;;;;;5049126;28;20176;-70
2021/01/29 07:04:16;;;;;;;26.10;4.23;;;20.60;99.90;;;;;;5050294;28;20669;-68
2021/01/29 07:06:56;;;;;;;32.27;6.20;;;20.60;99.90;;;;;;5051059;28;20206;-71
2021/01/29 07:09:36;;;;;;;23.00;5.57;;;20.60;99.90;;;;;;5055293;28;20580;-70
2021/01/29 07:12:04;;;;;;;22.07;3.63;;;20.60;99.90;;;;;;5055924;28;20206;-69
2021/01/29 07:14:55;;;;;;;20.47;3.90;;;20.60;99.90;;;;;;5055713;28;20634;-70
2021/01/29 07:17:44;;;;;;;25.57;4.33;;;20.60;99.90;;;;;;5055738;28;20219;-70
2021/01/29 07:20:29;;;;;;;24.63;4.67;;;20.70;99.90;;;;;;5033760;28;20267;-72
2021/01/29 07:23:09;;;;;;;21.97;4.30;;;20.60;99.90;;;;;;5054445;28;20176;-71
2021/01/29 07:26:24;;;;;;;21.27;3.87;;;20.60;99.90;;;;;;5055105;28;20231;-69
2021/01/29 07:29:03;;;;;;;20.93;3.30;;;20.60;99.90;;;;;;5018829;28;20200;-68
2021/01/29 07:31:53;;;;;;;24.47;4.73;;;20.70;99.90;;;;;;5055304;28;20204;-67
2021/01/29 07:34:32;;;;;;;21.90;3.97;;;20.70;99.90;;;;;;5055190;28;20180;-68
2021/01/29 07:37:18;;;;;;;22.33;4.17;;;20.70;99.90;;;;;;5054608;28;20247;-67
2021/01/29 07:40:21;;;;;;;18.97;3.60;;;20.70;99.90;;;;;;5055702;28;20175;-71
2021/01/29 07:42:55;;;;;;;15.37;3.67;;;20.80;99.90;;;;;;5048372;28;20638;-68
2021/01/29 07:45:48;;;;;;;18.57;4.40;;;20.70;99.90;;;;;;5047666;28;20541;-66
2021/01/29 07:48:50;;;;;;;15.30;3.20;;;20.80;99.90;;;;;;5042578;28;20238;-67
2021/01/29 07:51:45;;;;;;;26.30;6.50;;;20.70;99.90;;;;;;5055382;28;20198;-66
2021/01/29 07:54:36;;;;;;;30.30;9.73;;;20.70;99.90;;;;;;5055220;28;20280;-66
2021/01/29 07:57:18;;;;;;;27.77;5.97;;;20.70;99.90;;;;;;5054614;28;20200;-68
2021/01/29 08:00:24;;;;;;;35.00;5.37;;;20.70;99.90;;;;;;5042019;28;20587;-67
2021/01/29 08:03:12;;;;;;;29.53;4.90;;;20.70;99.90;;;;;;5037092;28;20184;-66
2021/01/29 08:05:48;;;;;;;23.43;4.23;;;20.60;99.90;;;;;;5045788;28;20185;-72
2021/01/29 08:08:26;;;;;;;10.73;2.33;;;20.70;99.90;;;;;;5048823;28;20206;-68
2021/01/29 08:10:58;;;;;;;11.17;3.03;;;20.60;99.90;;;;;;5051517;28;20553;-67
2021/01/29 08:13:40;;;;;;;13.87;2.93;;;20.60;99.90;;;;;;5053745;28;20180;-71
2021/01/29 08:16:28;;;;;;;12.63;2.90;;;20.70;99.90;;;;;;5054570;28;20245;-70
2021/01/29 08:19:27;;;;;;;14.30;3.50;;;20.60;99.90;;;;;;5048578;28;20192;-68
2021/01/29 08:22:28;;;;;;;10.20;2.60;;;20.70;99.90;;;;;;5024359;28;20192;-69
2021/01/29 08:25:17;;;;;;;13.83;2.37;;;20.70;99.90;;;;;;5041103;28;20246;-67
2021/01/29 08:28:18;;;;;;;12.20;2.47;;;20.60;99.90;;;;;;5048816;28;20184;-66
2021/01/29 08:31:22;;;;;;;10.97;2.33;;;20.70;99.90;;;;;;5051476;28;20221;-69
2021/01/29 08:34:10;;;;;;;13.37;2.90;;;20.60;99.90;;;;;;5051997;28;20176;-69
2021/01/29 08:36:39;;;;;;;13.97;3.27;;;20.70;99.90;;;;;;5053283;28;20211;-65
2021/01/29 08:39:30;;;;;;;13.03;2.97;;;20.70;99.90;;;;;;5046096;28;20238;-67
2021/01/29 08:42:09;;;;;;;11.87;2.93;;;20.70;99.90;;;;;;5049843;28;20188;-68
2021/01/29 08:44:54;;;;;;;13.33;2.80;;;20.70;99.90;;;;;;5053452;28;20183;-66
2021/01/29 08:47:45;;;;;;;20.10;10.00;;;20.70;99.90;;;;;;5054045;28;20506;-68
2021/01/29 08:50:15;;;;;;;23.37;4.17;;;20.60;99.90;;;;;;5047199;28;20183;-67
2021/01/29 08:52:49;;;;;;;19.77;4.40;;;20.60;99.90;;;;;;5053222;28;20657;-67
2021/01/29 08:55:26;;;;;;;24.77;3.90;;;20.60;99.90;;;;;;5054237;28;20176;-68
2021/01/29 08:58:11;;;;;;;22.53;4.20;;;20.70;99.90;;;;;;5053557;28;20273;-66
2021/01/29 09:00:41;;;;;;;23.40;4.67;;;20.70;99.90;;;;;;5050328;28;20649;-68
2021/01/29 09:03:22;;;;;;;24.97;4.87;;;20.70;99.90;;;;;;5053659;28;20549;-68
2021/01/29 09:05:59;;;;;;;26.27;4.60;;;20.60;99.90;;;;;;5053636;28;20187;-67
2021/01/29 09:08:26;;;;;;;38.20;5.07;;;20.70;99.90;;;;;;5052223;28;20650;-66
2021/01/29 09:11:05;;;;;;;22.60;4.27;;;20.70;99.90;;;;;;5052766;28;20172;-67
2021/01/29 09:13:34;;;;;;;26.77;4.63;;;20.60;99.90;;;;;;5053921;28;20699;-67
2021/01/29 09:16:10;;;;;;;27.50;4.20;;;20.70;99.90;;;;;;5051886;28;20549;-67
2021/01/29 09:18:46;;;;;;;33.37;4.83;;;20.70;99.90;;;;;;5046439;28;20215;-67
2021/01/29 09:21:16;;;;;;;38.80;6.03;;;20.70;99.90;;;;;;5053459;28;20650;-68
2021/01/29 09:24:05;;;;;;;28.73;5.80;;;20.70;99.90;;;;;;5051244;28;20534;-66
2021/01/29 09:27:10;;;;;;;26.27;5.07;;;20.80;99.90;;;;;;5044785;28;20302;-69
2021/01/29 09:29:51;;;;;;;27.83;4.80;;;20.80;99.90;;;;;;5038728;28;20190;-65
2021/01/29 09:32:52;;;;;;;17.50;3.87;;;20.80;99.90;;;;;;5049961;28;20188;-70
2021/01/29 09:35:54;;;;;;;17.07;3.63;;;20.80;99.90;;;;;;5046531;28;20546;-68
2021/01/29 09:38:38;;;;;;;22.30;3.57;;;20.80;99.90;;;;;;5037295;28;20223;-67
2021/01/29 09:41:33;;;;;;;20.40;3.73;;;20.80;99.90;;;;;;5050711;28;20180;-67
2021/01/29 09:44:10;;;;;;;18.53;3.60;;;20.80;99.90;;;;;;5039678;28;20218;-67
2021/01/29 09:46:43;;;;;;;16.73;2.97;;;20.80;99.90;;;;;;5053220;28;20182;-69
2021/01/29 09:49:22;;;;;;;16.83;3.07;;;20.80;99.90;;;;;;5051937;28;20195;-66
2021/01/29 09:52:34;;;;;;;18.40;3.63;;;20.80;99.90;;;;;;5053153;28;20186;-68
2021/01/29 09:55:14;;;;;;;25.37;4.10;;;20.80;99.90;;;;;;5046686;28;20226;-68
2021/01/29 09:58:13;;;;;;;22.60;3.97;;;20.80;99.90;;;;;;5048251;28;20223;-66
2021/01/29 10:00:43;;;;;;;21.53;3.30;;;20.80;99.90;;;;;;4996907;28;20266;-66
2021/01/29 10:03:17;;;;;;;22.57;4.37;;;20.80;99.90;;;;;;5042710;28;20180;-68
2021/01/29 10:05:47;;;;;;;28.00;4.67;;;20.80;99.90;;;;;;5052907;28;20179;-67
2021/01/29 10:08:22;;;;;;;24.77;4.93;;;20.80;99.90;;;;;;5053388;28;20226;-67
2021/01/29 10:11:01;;;;;;;26.67;4.43;;;20.80;99.90;;;;;;5051146;28;20182;-66
2021/01/29 10:13:53;;;;;;;23.43;4.10;;;20.80;99.90;;;;;;5051612;28;20180;-66
2021/01/29 10:16:48;;;;;;;20.93;3.73;;;20.80;99.90;;;;;;5051511;28;20176;-66
2021/01/29 10:19:18;;;;;;;17.40;3.03;;;20.90;99.90;;;;;;5052044;28;20617;-68
2021/01/29 10:22:07;;;;;;;23.53;3.73;;;20.90;99.90;;;;;;5052171;28;20180;-68
2021/01/29 10:24:40;;;;;;;17.40;3.57;;;20.90;99.90;;;;;;5045048;28;20180;-67
2021/01/29 10:27:21;;;;;;;15.77;3.50;;;20.90;99.90;;;;;;5038214;28;20227;-68
2021/01/29 10:30:19;;;;;;;13.90;2.63;;;20.90;99.90;;;;;;5046469;28;20208;-67
2021/01/29 10:33:08;;;;;;;12.20;2.67;;;21.00;99.90;;;;;;5037712;28;20184;-66
2021/01/29 10:35:50;;;;;;;10.80;2.10;;;21.00;99.90;;;;;;5046542;28;20226;-65
2021/01/29 10:38:33;;;;;;;8.73;2.00;;;21.00;99.90;;;;;;5049963;28;20681;-66
2021/01/29 10:41:25;;;;;;;6.90;1.70;;;21.00;99.90;;;;;;5047590;28;20175;-65
2021/01/29 10:43:55;;;;;;;10.87;2.40;;;20.90;99.90;;;;;;5044022;28;20198;-68
2021/01/29 10:46:50;;;;;;;8.93;1.67;;;20.90;99.90;;;;;;5051661;28;20187;-69
2021/01/29 10:49:23;;;;;;;5.80;1.53;;;21.00;99.90;;;;;;5051942;28;20184;-69
2021/01/29 10:52:13;;;;;;;4.63;1.30;;;20.90;99.90;;;;;;5052396;28;20180;-69
2021/01/29 10:54:53;;;;;;;4.00;1.20;;;20.90;99.90;;;;;;5051832;28;20183;-67
2021/01/29 10:57:20;;;;;;;3.67;1.10;;;20.90;99.90;;;;;;5049852;28;20207;-68
2021/01/29 10:59:48;;;;;;;6.87;1.50;;;20.90;99.90;;;;;;5052223;28;20255;-69
2021/01/29 11:02:29;;;;;;;4.80;1.20;;;21.00;99.90;;;;;;5051201;28;20279;-67
2021/01/29 11:05:10;;;;;;;7.50;1.30;;;21.00;99.90;;;;;;5050938;28;20192;-67
2021/01/29 11:07:43;;;;;;;5.80;1.37;;;21.00;99.90;;;;;;5052195;28;20635;-67
2021/01/29 11:10:22;;;;;;;6.30;1.40;;;21.00;99.90;;;;;;5052002;28;20188;-67
2021/01/29 11:12:57;;;;;;;9.13;1.97;;;20.90;99.90;;;;;;5050706;28;20194;-67
2021/01/29 11:16:09;;;;;;;5.70;1.20;;;21.00;99.90;;;;;;5049846;28;20266;-67
2021/01/29 11:18:37;;;;;;;5.27;1.77;;;21.00;99.90;;;;;;5024557;28;20228;-68
2021/01/29 11:21:10;;;;;;;9.00;1.73;;;21.00;99.90;;;;;;5052550;28;20191;-67
2021/01/29 11:24:06;;;;;;;17.37;3.17;;;21.00;99.90;;;;;;5048283;28;20185;-67
2021/01/29 11:26:39;;;;;;;12.97;3.10;;;21.00;99.90;;;;;;5042829;28;20223;-69
2021/01/29 11:29:29;;;;;;;16.10;3.27;;;21.00;99.90;;;;;;5051510;28;20180;-66
2021/01/29 11:32:21;;;;;;;19.87;3.80;;;21.00;99.90;;;;;;5025653;28;20584;-68
2021/01/29 11:34:53;;;;;;;16.43;3.20;;;21.00;99.90;;;;;;5044359;28;20233;-67
2021/01/29 11:37:41;;;;;;;15.67;3.33;;;21.10;99.90;;;;;;5054753;28;20357;-70
2021/01/29 11:40:08;;;;;;;19.57;3.87;;;21.00;99.90;;;;;;5054048;28;20603;-68
2021/01/29 11:42:52;;;;;;;26.07;4.67;;;21.00;99.90;;;;;;5053775;28;20178;-66
2021/01/29 11:45:27;;;;;;;32.33;4.83;;;21.00;99.90;;;;;;5057536;28;20646;-68
2021/01/29 11:48:08;;;;;;;36.87;6.80;;;21.00;99.90;;;;;;5046087;28;20626;-69
2021/01/29 11:51:04;;;;;;;27.77;5.83;;;21.00;99.90;;;;;;5056794;28;20201;-66
2021/01/29 11:53:52;;;;;;;35.80;6.53;;;21.00;99.90;;;;;;5023607;28;20203;-69
2021/01/29 11:56:37;;;;;;;29.53;5.00;;;21.00;99.90;;;;;;5052854;28;20211;-70
2021/01/29 11:59:28;;;;;;;23.23;4.60;;;21.00;99.90;;;;;;5048098;28;20188;-67
2021/01/29 12:02:11;;;;;;;20.40;4.23;;;21.00;99.90;;;;;;5043591;28;20182;-66
2021/01/29 12:05:07;;;;;;;25.40;4.17;;;21.00;99.90;;;;;;5052041;28;20183;-66
2021/01/29 12:07:43;;;;;;;23.67;5.13;;;21.00;99.90;;;;;;5049388;28;20188;-71
2021/01/29 12:10:34;;;;;;;19.00;3.93;;;21.00;99.90;;;;;;5052546;28;20183;-68
2021/01/29 12:13:07;;;;;;;21.10;3.97;;;21.00;99.90;;;;;;5048427;28;20211;-70
2021/01/29 12:15:37;;;;;;;18.40;3.67;;;21.00;99.90;;;;;;5041988;28;20188;-70
2021/01/29 12:18:11;;;;;;;18.83;3.80;;;21.00;99.90;;;;;;5049253;28;20214;-72
2021/01/29 12:20:44;;;;;;;19.13;3.43;;;21.00;99.90;;;;;;5054294;28;20179;-65
2021/01/29 12:23:29;;;;;;;15.50;3.50;;;21.00;99.90;;;;;;5055003;28;20273;-65
2021/01/29 12:26:07;;;;;;;22.60;4.57;;;21.00;99.90;;;;;;5054928;28;20207;-67
2021/01/29 12:28:53;;;;;;;12.63;3.80;;;21.00;99.90;;;;;;5054953;28;20188;-66
2021/01/29 12:31:36;;;;;;;22.30;4.77;;;21.00;99.90;;;;;;5053699;28;20179;-66
2021/01/29 12:34:34;;;;;;;27.70;4.90;;;21.00;99.90;;;;;;5050892;28;20268;-65
2021/01/29 12:37:20;;;;;;;20.53;4.80;;;21.00;99.90;;;;;;5048230;28;20677;-66
2021/01/29 12:39:58;;;;;;;30.87;5.90;;;21.10;99.90;;;;;;5049955;28;20211;-67
2021/01/29 12:42:28;;;;;;;36.30;6.10;;;21.00;99.90;;;;;;5051581;28;20178;-65
2021/01/29 12:45:05;;;;;;;30.60;6.40;;;21.10;99.90;;;;;;5052814;28;20644;-67
2021/01/29 12:48:14;;;;;;;39.63;6.13;;;21.10;99.90;;;;;;5053755;28;20175;-67
2021/01/29 12:51:03;;;;;;;28.20;4.93;;;21.10;99.90;;;;;;5044732;28;20302;-68
2021/01/29 12:54:14;;;;;;;31.53;4.87;;;21.10;99.90;;;;;;5054887;28;20184;-67
2021/01/29 12:56:51;;;;;;;27.63;5.13;;;21.00;99.90;;;;;;5043427;28;20264;-66
2021/01/29 12:59:34;;;;;;;27.67;4.63;;;21.00;99.90;;;;;;5054486;28;20187;-67
2021/01/29 13:02:23;;;;;;;36.10;5.50;;;21.00;99.90;;;;;;5053852;28;20211;-67
2021/01/29 13:05:03;;;;;;;28.90;5.43;;;21.00;99.90;;;;;;5041417;28;20188;-68
2021/01/29 13:07:32;;;;;;;37.83;5.77;;;21.00;99.90;;;;;;5049536;28;20257;-68
2021/01/29 13:10:08;;;;;;;31.30;5.33;;;21.10;99.90;;;;;;5047741;28;20650;-70
2021/01/29 13:12:49;;;;;;;36.13;5.57;;;21.10;99.90;;;;;;5052061;28;20172;-68
2021/01/29 13:15:40;;;;;;;35.77;5.30;;;21.10;99.90;;;;;;5052413;28;20561;-67
2021/01/29 13:18:17;;;;;;;40.57;6.43;;;21.10;99.90;;;;;;5052691;28;20219;-66
2021/01/29 13:20:52;;;;;;;44.23;6.67;;;21.10;99.90;;;;;;5053648;28;20641;-66
2021/01/29 13:23:23;;;;;;;36.17;6.57;;;21.10;99.90;;;;;;5052193;28;20191;-66
2021/01/29 13:26:04;;;;;;;45.87;7.27;;;21.20;99.90;;;;;;5053456;28;20277;-67
2021/01/29 13:28:38;;;;;;;49.33;7.33;;;21.10;99.90;;;;;;5053613;28;20266;-66
2021/01/29 13:31:17;;;;;;;42.83;6.90;;;21.10;99.90;;;;;;5053604;28;20228;-68
2021/01/29 13:33:49;;;;;;;46.23;6.77;;;21.10;99.90;;;;;;5053306;28;20679;-67
2021/01/29 13:36:32;;;;;;;51.37;8.27;;;21.20;99.90;;;;;;5052832;28;20530;-65
2021/01/29 13:39:38;;;;;;;48.83;7.17;;;21.10;99.90;;;;;;5053291;28;20665;-67
2021/01/29 13:42:14;;;;;;;63.53;8.67;;;21.20;99.90;;;;;;5030085;28;20798;-68
2021/01/29 13:44:54;;;;;;;57.70;8.17;;;21.20;99.90;;;;;;5040775;28;20180;-68
2021/01/29 13:47:28;;;;;;;62.90;9.00;;;21.20;99.90;;;;;;5049568;28;20191;-66
2021/01/29 13:49:57;;;;;;;53.53;8.20;;;21.20;99.90;;;;;;5053263;28;20172;-69
2021/01/29 13:52:34;;;;;;;63.90;9.07;;;21.20;99.90;;;;;;5052037;28;20642;-68
2021/01/29 13:55:33;;;;;;;53.37;8.47;;;21.30;99.90;;;;;;5034039;28;20165;-67